createdAt,value
2023-02-22T00:00:42.803Z,101136.72
2023-02-22T00:03:13.115Z,101144.91
2023-02-22T00:05:40.888Z,101147.72
2023-02-22T00:08:10.192Z,101147.72
2023-02-22T00:10:39.539Z,101142.47
2023-02-22T00:13:09.859Z,101144.31
2023-02-22T00:15:41.415Z,101141.69
2023-02-22T00:18:11.359Z,101142.03
2023-02-22T00:20:39.852Z,101139.50
2023-02-22T00:23:08.980Z,101136.03
2023-02-22T00:25:37.281Z,101130.91
2023-02-22T00:28:05.961Z,101122.94
2023-02-22T00:30:34.739Z,101128.38
2023-02-22T00:33:04.024Z,101131.09
2023-02-22T00:35:33.790Z,101125.88
2023-02-22T00:38:03.395Z,101124.03
2023-02-22T00:40:32.763Z,101115.88
2023-02-22T00:43:02.455Z,101120.34
2023-02-22T00:45:32.146Z,101120.34
2023-02-22T00:48:00.995Z,101115.00
2023-02-22T00:50:31.707Z,101117.72
2023-02-22T00:53:01.593Z,101115.88
2023-02-22T00:55:32.106Z,101115.00
2023-02-22T00:58:01.963Z,101114.22
2023-02-22T01:00:32.292Z,101113.34
2023-02-22T01:03:00.868Z,101110.72
2023-02-22T01:05:31.847Z,101102.78
2023-02-22T01:08:01.301Z,101102.00
2023-02-22T01:10:30.950Z,101103.88
2023-02-22T01:13:00.934Z,101098.53
2023-02-22T01:15:30.610Z,101088.59
2023-02-22T01:17:59.760Z,101083.16
2023-02-22T01:20:29.166Z,101086.00
2023-02-22T01:23:00.705Z,101084.16
2023-02-22T01:25:32.316Z,101075.25
2023-02-22T01:28:02.677Z,101079.81
2023-02-22T01:30:33.861Z,101085.34
2023-02-22T01:33:02.681Z,101081.81
2023-02-22T01:35:32.819Z,101079.19
2023-02-22T01:38:02.243Z,101069.28
2023-02-22T01:40:32.276Z,101066.69
2023-02-22T01:43:03.660Z,101070.28
2023-02-22T01:45:54.297Z,101065.59
2023-02-22T01:48:29.250Z,101062.00
2023-02-22T01:51:00.876Z,101059.19
2023-02-22T01:53:34.476Z,101052.78
2023-02-22T01:56:03.385Z,101055.50
2023-02-22T01:58:36.353Z,101058.03
2023-02-22T02:01:04.570Z,101053.56
2023-02-22T02:03:36.429Z,101051.50
2023-02-22T02:06:11.781Z,101047.81
2023-02-22T02:08:49.777Z,101050.31
2023-02-22T02:11:20.289Z,101040.31
2023-02-22T02:13:50.629Z,101045.75
2023-02-22T02:16:18.721Z,101041.09
2023-02-22T02:18:46.450Z,101036.53
2023-02-22T02:21:40.073Z,101037.16
2023-02-22T02:24:50.320Z,101034.53
2023-02-22T02:27:21.545Z,101033.66
2023-02-22T02:30:38.349Z,101026.38
2023-02-22T02:33:14.530Z,101027.25
2023-02-22T02:35:52.488Z,101025.41
2023-02-22T02:38:31.577Z,101020.94
2023-02-22T02:41:07.358Z,101022.78
2023-02-22T02:43:41.103Z,101021.03
2023-02-22T02:46:13.253Z,101017.59
2023-02-22T02:48:50.398Z,101014.88
2023-02-22T02:51:20.037Z,101012.25
2023-02-22T02:53:51.420Z,101015.94
2023-02-22T02:56:19.326Z,101016.03
2023-02-22T02:58:51.094Z,101007.78
2023-02-22T03:01:35.667Z,101008.66
2023-02-22T03:04:20.347Z,101006.91
2023-02-22T03:07:17.869Z,101011.47
2023-02-22T03:10:00.826Z,101005.16
2023-02-22T03:12:39.842Z,101004.38
2023-02-22T03:15:21.805Z,100988.84
2023-02-22T03:17:55.543Z,100989.81
2023-02-22T03:20:31.742Z,100991.66
2023-02-22T03:23:09.715Z,100996.22
2023-02-22T03:25:44.125Z,100993.63
2023-02-22T03:28:16.637Z,100996.47
2023-02-22T03:30:49.824Z,100989.16
2023-02-22T03:33:27.998Z,100998.94
2023-02-22T03:36:02.692Z,100993.41
2023-02-22T03:38:34.838Z,100997.88
2023-02-22T03:41:03.776Z,100990.59
2023-02-22T03:43:37.621Z,100993.09
2023-02-22T03:46:10.362Z,100993.00
2023-02-22T03:48:45.228Z,100998.19
2023-02-22T03:51:17.014Z,100993.63
2023-02-22T03:53:49.155Z,100992.75
2023-02-22T03:56:23.936Z,100996.16
2023-02-22T03:58:52.962Z,101001.59
2023-02-22T04:01:23.564Z,100997.03
2023-02-22T04:03:51.403Z,100997.03
2023-02-22T04:06:20.577Z,100998.63
2023-02-22T04:08:48.447Z,100996.06
2023-02-22T04:11:16.602Z,100990.59
2023-02-22T04:13:45.418Z,100995.03
2023-02-22T04:16:13.227Z,100999.50
2023-02-22T04:18:41.070Z,101002.22
2023-02-22T04:21:09.245Z,101005.81
2023-02-22T04:23:45.647Z,101005.81
2023-02-22T04:26:14.147Z,101000.38
2023-02-22T04:28:41.942Z,100996.69
2023-02-22T04:31:19.466Z,101001.16
2023-02-22T04:33:47.633Z,100986.69
2023-02-22T04:36:19.196Z,100987.56
2023-02-22T04:38:48.946Z,100980.25
2023-02-22T04:41:18.756Z,100979.28
2023-02-22T04:43:47.055Z,100974.91
2023-02-22T04:46:33.556Z,100977.66
2023-02-22T04:49:02.642Z,100975.78
2023-02-22T04:51:33.082Z,100973.06
2023-02-22T04:54:08.201Z,100967.53
2023-02-22T04:56:38.040Z,100974.81
2023-02-22T04:59:06.842Z,100962.97
2023-02-22T05:01:38.400Z,100959.25
2023-02-22T05:04:07.431Z,100955.66
2023-02-22T05:06:35.274Z,100960.25
2023-02-22T05:09:03.174Z,100952.06
2023-02-22T05:11:32.246Z,100950.22
2023-02-22T05:14:00.181Z,100944.00
2023-02-22T05:16:27.989Z,100940.31
2023-02-22T05:18:55.735Z,100943.13
2023-02-22T05:21:23.550Z,100937.81
2023-02-22T05:23:51.382Z,100936.06
2023-02-22T05:26:19.700Z,100935.44
2023-02-22T05:28:48.801Z,100928.25
2023-02-22T05:31:17.603Z,100933.97
2023-02-22T05:33:45.522Z,100932.38
2023-02-22T05:36:13.205Z,100929.00
2023-02-22T05:38:43.384Z,100930.09
2023-02-22T05:41:12.557Z,100924.88
2023-02-22T05:43:40.559Z,100923.28
2023-02-22T05:46:10.058Z,100926.16
2023-02-22T05:48:37.964Z,100914.81
2023-02-22T05:51:05.964Z,100922.31
2023-02-22T05:53:33.981Z,100922.53
2023-02-22T05:56:01.732Z,100918.16
2023-02-22T05:58:29.463Z,100916.66
2023-02-22T06:00:57.439Z,100912.28
2023-02-22T06:03:26.683Z,100919.69
2023-02-22T06:05:54.433Z,100913.59
2023-02-22T06:08:22.143Z,100916.41
2023-02-22T06:10:49.887Z,100915.63
2023-02-22T06:13:17.760Z,100911.22
2023-02-22T06:15:45.474Z,100908.59
2023-02-22T06:18:13.190Z,100902.28
2023-02-22T06:20:42.400Z,100913.94
2023-02-22T06:23:10.154Z,100911.31
2023-02-22T06:25:37.926Z,100909.56
2023-02-22T06:28:05.880Z,100919.38
2023-02-22T06:30:33.645Z,100907.72
2023-02-22T06:33:01.585Z,100907.81
2023-02-22T06:35:29.282Z,100902.47
2023-02-22T06:37:58.425Z,100905.09
2023-02-22T06:40:29.375Z,100904.44
2023-02-22T06:42:57.787Z,100912.81
2023-02-22T06:45:25.609Z,100910.28
2023-02-22T06:47:53.453Z,100906.94
2023-02-22T06:50:23.631Z,100908.78
2023-02-22T06:52:51.774Z,100911.69
2023-02-22T06:55:23.308Z,100915.38
2023-02-22T06:57:51.807Z,100902.13
2023-02-22T07:00:21.546Z,100901.25
2023-02-22T07:02:49.729Z,100905.03
2023-02-22T07:05:19.406Z,100904.16
2023-02-22T07:07:47.988Z,100904.25
2023-02-22T07:10:22.481Z,100912.31
2023-02-22T07:12:52.433Z,100906.25
2023-02-22T07:15:22.447Z,100907.06
2023-02-22T07:17:50.296Z,100897.22
2023-02-22T07:20:18.419Z,100900.81
2023-02-22T07:22:46.161Z,100899.81
2023-02-22T07:25:13.989Z,100895.13
2023-02-22T07:27:43.968Z,100897.66
2023-02-22T07:30:18.670Z,100896.47
2023-02-22T07:32:47.721Z,100893.75
2023-02-22T07:35:17.061Z,100889.09
2023-02-22T07:37:45.254Z,100892.56
2023-02-22T07:40:13.649Z,100891.47
2023-02-22T07:42:57.448Z,100892.03
2023-02-22T07:45:27.278Z,100892.81
2023-02-22T07:47:55.625Z,100888.03
2023-02-22T07:50:24.828Z,100884.13
2023-02-22T07:52:54.867Z,100883.69
2023-02-22T07:55:25.938Z,100878.91
2023-02-22T07:57:57.418Z,100884.91
2023-02-22T08:00:28.480Z,100875.44
2023-02-22T08:02:57.118Z,100876.97
2023-02-22T08:05:27.849Z,100874.69
2023-02-22T08:07:56.096Z,100874.22
2023-02-22T08:10:25.828Z,100871.88
2023-02-22T08:12:56.192Z,100869.81
2023-02-22T08:15:28.456Z,100871.31
2023-02-22T08:17:57.139Z,100870.13
2023-02-22T08:20:25.686Z,100863.47
2023-02-22T08:22:53.530Z,100854.88
2023-02-22T08:25:23.262Z,100863.56
2023-02-22T08:27:51.180Z,100856.91
2023-02-22T08:30:23.561Z,100850.16
2023-02-22T08:32:52.365Z,100850.16
2023-02-22T08:35:23.298Z,100837.72
2023-02-22T08:37:54.151Z,100840.09
2023-02-22T08:40:27.665Z,100849.78
2023-02-22T08:42:55.676Z,100839.63
2023-02-22T08:45:25.217Z,100843.66
2023-02-22T08:47:53.110Z,100847.88
2023-02-22T08:50:23.595Z,100838.38
2023-02-22T08:52:52.228Z,100839.03
2023-02-22T08:55:21.577Z,100844.97
2023-02-22T08:57:50.583Z,100841.94
2023-02-22T09:00:21.399Z,100843.19
2023-02-22T09:02:50.660Z,100840.00
2023-02-22T09:05:18.476Z,100846.09
2023-02-22T09:07:46.487Z,100843.75
2023-02-22T09:10:16.504Z,100843.06
2023-02-22T09:12:44.340Z,100836.50
2023-02-22T09:15:12.983Z,100835.03
2023-02-22T09:17:40.846Z,100825.53
2023-02-22T09:20:12.408Z,100836.72
2023-02-22T09:22:40.519Z,100831.75
2023-02-22T09:25:16.821Z,100833.91
2023-02-22T09:27:45.216Z,100839.00
2023-02-22T09:30:19.317Z,100842.84
2023-02-22T09:32:47.333Z,100844.22
2023-02-22T09:35:16.526Z,100834.53
2023-02-22T09:37:45.033Z,100837.69
2023-02-22T09:40:24.686Z,100833.34
2023-02-22T09:43:03.503Z,100839.06
2023-02-22T09:45:36.881Z,100832.22
2023-02-22T09:48:21.339Z,100831.59
2023-02-22T09:50:54.768Z,100825.63
2023-02-22T09:53:29.428Z,100827.28
2023-02-22T09:56:01.814Z,100823.16
2023-02-22T09:58:34.304Z,100826.97
2023-02-22T10:01:23.916Z,100820.53
2023-02-22T10:03:57.460Z,100818.78
2023-02-22T10:06:27.244Z,100816.41
2023-02-22T10:08:59.287Z,100817.78
2023-02-22T10:11:41.743Z,100823.88
2023-02-22T10:14:30.361Z,100822.59
2023-02-22T10:17:06.224Z,100816.88
2023-02-22T10:19:44.876Z,100815.38
2023-02-22T10:22:31.553Z,100807.66
2023-02-22T10:25:04.756Z,100811.00
2023-02-22T10:27:35.295Z,100802.41
2023-02-22T10:30:23.237Z,100806.38
2023-02-22T10:32:58.638Z,100803.34
2023-02-22T10:35:29.739Z,100800.13
2023-02-22T10:38:05.357Z,100791.38
2023-02-22T10:40:33.409Z,100791.97
2023-02-22T10:43:06.766Z,100787.72
2023-02-22T10:45:37.107Z,100791.03
2023-02-22T10:48:11.550Z,100783.03
2023-02-22T10:50:41.998Z,100772.41
2023-02-22T10:53:11.817Z,100771.91
2023-02-22T10:56:18.365Z,100771.63
2023-02-22T10:58:51.063Z,100774.66
2023-02-22T11:01:26.636Z,100779.63
2023-02-22T11:04:02.746Z,100770.63
2023-02-22T11:06:31.252Z,100770.22
2023-02-22T11:09:11.084Z,100761.31
2023-02-22T11:11:40.249Z,100764.53
2023-02-22T11:14:10.701Z,100756.75
2023-02-22T11:16:42.025Z,100753.44
2023-02-22T11:19:20.910Z,100757.09
2023-02-22T11:21:51.759Z,100748.44
2023-02-22T11:24:24.096Z,100755.97
2023-02-22T11:26:56.254Z,100757.28
2023-02-22T11:29:28.701Z,100757.59
2023-02-22T11:31:57.174Z,100745.06
2023-02-22T11:34:36.388Z,100737.72
2023-02-22T11:37:29.286Z,100741.63
2023-02-22T11:40:21.796Z,100753.00
2023-02-22T11:42:51.556Z,100744.09
2023-02-22T11:45:23.784Z,100738.50
2023-02-22T11:47:57.395Z,100748.88
2023-02-22T11:50:29.894Z,100731.69
2023-02-22T11:53:16.921Z,100723.78
2023-02-22T11:55:57.267Z,100727.81
2023-02-22T11:58:37.873Z,100717.97
2023-02-22T12:01:17.114Z,100722.00
2023-02-22T12:04:10.502Z,100716.81
2023-02-22T12:06:48.475Z,100717.22
2023-02-22T12:09:21.870Z,100716.59
2023-02-22T12:12:00.915Z,100719.47
2023-02-22T12:14:41.929Z,100719.03
2023-02-22T12:17:29.455Z,100717.56
2023-02-22T12:20:06.912Z,100718.69
2023-02-22T12:22:36.794Z,100706.97
2023-02-22T12:25:14.607Z,100709.16
2023-02-22T12:27:47.042Z,100710.28
2023-02-22T12:30:23.584Z,100714.44
2023-02-22T12:32:53.834Z,100706.44
2023-02-22T12:35:24.453Z,100712.22
2023-02-22T12:38:04.098Z,100713.47
2023-02-22T12:40:38.530Z,100704.75
2023-02-22T12:43:16.706Z,100716.03
2023-02-22T12:45:50.210Z,100708.31
2023-02-22T12:48:27.295Z,100701.34
2023-02-22T12:50:59.602Z,100708.41
2023-02-22T12:53:32.253Z,100705.38
2023-02-22T12:56:05.782Z,100705.03
2023-02-22T12:58:42.224Z,100707.19
2023-02-22T13:01:17.897Z,100706.72
2023-02-22T13:03:46.717Z,100701.94
2023-02-22T13:06:35.455Z,100706.06
2023-02-22T13:09:21.074Z,100708.53
2023-02-22T13:11:56.818Z,100698.25
2023-02-22T13:14:40.669Z,100702.38
2023-02-22T13:17:20.789Z,100694.72
2023-02-22T13:19:56.732Z,100692.47
2023-02-22T13:22:33.060Z,100704.06
2023-02-22T13:25:09.935Z,100692.06
2023-02-22T13:27:43.786Z,100695.53
2023-02-22T13:30:22.769Z,100696.22
2023-02-22T13:33:04.547Z,100697.94
2023-02-22T13:35:56.820Z,100695.34
2023-02-22T13:38:50.492Z,100691.75
2023-02-22T13:41:37.226Z,100697.94
2023-02-22T13:44:29.538Z,100692.44
2023-02-22T13:47:31.896Z,100686.25
2023-02-22T13:50:41.056Z,100683.66
2023-02-22T13:53:15.492Z,100686.06
2023-02-22T13:55:49.416Z,100679.72
2023-02-22T13:58:17.479Z,100688.16
2023-02-22T14:00:48.598Z,100684.19
2023-02-22T14:03:36.133Z,100677.81
2023-02-22T14:06:05.706Z,100690.91
2023-02-22T14:08:43.780Z,100680.41
2023-02-22T14:11:45.080Z,100685.22
2023-02-22T14:14:17.369Z,100689.69
2023-02-22T14:16:45.579Z,100694.50
2023-02-22T14:19:22.934Z,100686.63
2023-02-22T14:22:01.951Z,100684.59
2023-02-22T14:24:31.645Z,100684.75
2023-02-22T14:27:03.419Z,100687.34
2023-02-22T14:29:31.998Z,100678.22
2023-02-22T14:32:04.344Z,100677.03
2023-02-22T14:34:50.626Z,100674.63
2023-02-22T14:37:24.815Z,100679.97
2023-02-22T14:39:58.457Z,100678.75
2023-02-22T14:42:32.731Z,100678.75
2023-02-22T14:45:03.016Z,100678.75
2023-02-22T14:47:39.800Z,100680.50
2023-02-22T14:50:17.402Z,100676.72
2023-02-22T14:52:49.889Z,100677.75
2023-02-22T14:55:22.537Z,100682.38
2023-02-22T14:58:00.093Z,100675.00
2023-02-22T15:00:37.904Z,100676.72
2023-02-22T15:03:05.648Z,100674.13
2023-02-22T15:05:39.362Z,100679.31
2023-02-22T15:08:09.392Z,100682.22
2023-02-22T15:10:43.809Z,100682.06
2023-02-22T15:13:23.726Z,100677.59
2023-02-22T15:16:00.498Z,100682.22
2023-02-22T15:18:34.827Z,100676.72
2023-02-22T15:21:13.119Z,100676.72
2023-02-22T15:23:44.698Z,100679.63
2023-02-22T15:26:35.255Z,100680.66
2023-02-22T15:29:08.664Z,100679.09
2023-02-22T15:31:38.173Z,100690.97
2023-02-22T15:34:24.148Z,100684.59
2023-02-22T15:36:56.156Z,100691.13
2023-02-22T15:39:29.534Z,100694.19
2023-02-22T15:42:06.063Z,100700.53
2023-02-22T15:44:36.923Z,100698.81
2023-02-22T15:47:05.790Z,100698.09
2023-02-22T15:49:37.819Z,100697.56
2023-02-22T15:52:10.759Z,100703.22
2023-02-22T15:54:45.430Z,100702.31
2023-02-22T15:57:19.512Z,100699.72
2023-02-22T15:59:53.007Z,100711.06
2023-02-22T16:02:31.545Z,100710.19
2023-02-22T16:05:02.645Z,100706.88
2023-02-22T16:07:32.212Z,100708.03
2023-02-22T16:10:07.999Z,100709.25
2023-02-22T16:12:36.262Z,100710.41
2023-02-22T16:15:04.682Z,100717.78
2023-02-22T16:17:37.739Z,100711.41
2023-02-22T16:20:36.210Z,100713.78
2023-02-22T16:23:26.714Z,100714.09
2023-02-22T16:26:06.387Z,100719.72
2023-02-22T16:28:35.956Z,100712.84
2023-02-22T16:31:04.736Z,100705.75
2023-02-22T16:33:33.989Z,100719.66
2023-02-22T16:36:07.930Z,100716.91
2023-02-22T16:38:39.181Z,100717.22
2023-02-22T16:41:08.312Z,100717.53
2023-02-22T16:43:36.777Z,100718.88
2023-02-22T16:46:07.211Z,100724.66
2023-02-22T16:48:38.145Z,100720.31
2023-02-22T16:51:14.770Z,100723.06
2023-02-22T16:53:44.594Z,100727.16
2023-02-22T16:56:16.117Z,100721.97
2023-02-22T16:58:46.261Z,100723.31
2023-02-22T17:01:14.023Z,100726.34
2023-02-22T17:03:41.888Z,100725.78
2023-02-22T17:06:11.010Z,100723.34
2023-02-22T17:08:39.278Z,100724.50
2023-02-22T17:11:09.516Z,100730.16
2023-02-22T17:13:37.402Z,100731.50
2023-02-22T17:16:05.734Z,100737.13
2023-02-22T17:18:34.490Z,100744.63
2023-02-22T17:21:03.622Z,100735.69
2023-02-22T17:23:31.603Z,100747.00
2023-02-22T17:26:02.082Z,100746.13
2023-02-22T17:28:32.489Z,100749.16
2023-02-22T17:31:01.801Z,100751.22
2023-02-22T17:33:33.722Z,100755.94
2023-02-22T17:36:02.907Z,100754.22
2023-02-22T17:38:31.726Z,100753.63
2023-02-22T17:41:01.408Z,100766.50
2023-02-22T17:43:29.605Z,100765.06
2023-02-22T17:45:58.771Z,100764.22
2023-02-22T17:48:27.210Z,100773.59
2023-02-22T17:50:54.984Z,100766.53
2023-02-22T17:53:24.795Z,100768.44
2023-02-22T17:55:52.736Z,100768.72
2023-02-22T17:58:20.603Z,100774.34
2023-02-22T18:00:50.816Z,100770.72
2023-02-22T18:03:21.873Z,100759.91
2023-02-22T18:05:54.955Z,100777.53
2023-02-22T18:08:24.440Z,100773.22
2023-02-22T18:10:56.309Z,100769.59
2023-02-22T18:13:25.963Z,100773.50
2023-02-22T18:15:54.304Z,100778.09
2023-02-22T18:18:23.419Z,100772.63
2023-02-22T18:20:55.620Z,100778.44
2023-02-22T18:23:27.808Z,100777.84
2023-02-22T18:26:09.757Z,100771.50
2023-02-22T18:28:38.341Z,100779.16
2023-02-22T18:31:08.644Z,100791.56
2023-02-22T18:33:38.156Z,100790.88
2023-02-22T18:36:07.581Z,100790.28
2023-02-22T18:38:35.321Z,100781.31
2023-02-22T18:41:04.941Z,100789.56
2023-02-22T18:43:34.318Z,100789.88
2023-02-22T18:46:09.919Z,100791.56
2023-02-22T18:48:39.506Z,100792.88
2023-02-22T18:51:10.257Z,100792.03
2023-02-22T18:53:38.704Z,100785.94
2023-02-22T18:56:07.705Z,100795.22
2023-02-22T18:58:36.234Z,100797.22
2023-02-22T19:01:05.688Z,100793.63
2023-02-22T19:03:38.153Z,100797.50
2023-02-22T19:06:09.757Z,100792.34
2023-02-22T19:08:39.587Z,100789.88
2023-02-22T19:11:09.764Z,100793.63
2023-02-22T19:13:37.908Z,100793.03
2023-02-22T19:16:08.199Z,100784.81
2023-02-22T19:18:36.236Z,100784.38
2023-02-22T19:21:08.584Z,100790.00
2023-02-22T19:23:45.364Z,100793.19
2023-02-22T19:26:14.240Z,100791.59
2023-02-22T19:28:41.960Z,100797.34
2023-02-22T19:31:18.584Z,100809.06
2023-02-22T19:33:48.278Z,100804.16
2023-02-22T19:36:16.681Z,100811.78
2023-02-22T19:38:46.383Z,100810.06
2023-02-22T19:41:18.150Z,100807.56
2023-02-22T19:43:46.877Z,100813.63
2023-02-22T19:46:17.719Z,100810.88
2023-02-22T19:48:46.007Z,100814.78
2023-02-22T19:51:15.714Z,100807.56
2023-02-22T19:53:44.706Z,100817.78
2023-02-22T19:56:16.292Z,100815.03
2023-02-22T19:58:46.447Z,100818.09
2023-02-22T20:01:14.761Z,100817.34
2023-02-22T20:03:43.539Z,100818.34
2023-02-22T20:06:11.931Z,100820.38
2023-02-22T20:08:42.187Z,100821.38
2023-02-22T20:11:11.453Z,100823.22
2023-02-22T20:13:41.516Z,100817.06
2023-02-22T20:16:10.801Z,100816.31
2023-02-22T20:18:38.687Z,100821.94
2023-02-22T20:21:10.118Z,100821.81
2023-02-22T20:23:40.150Z,100820.19
2023-02-22T20:26:16.101Z,100830.16
2023-02-22T20:28:45.777Z,100828.56
2023-02-22T20:31:16.335Z,100833.19
2023-02-22T20:33:46.658Z,100830.59
2023-02-22T20:36:16.579Z,100835.19
2023-02-22T20:38:45.158Z,100830.84
2023-02-22T20:41:15.660Z,100826.25
2023-02-22T20:43:45.046Z,100825.50
2023-02-22T20:46:12.849Z,100832.84
2023-02-22T20:48:40.669Z,100833.88
2023-02-22T20:51:10.431Z,100829.25
2023-02-22T20:53:41.668Z,100833.16
2023-02-22T20:56:13.602Z,100843.81
2023-02-22T20:58:41.679Z,100843.38
2023-02-22T21:01:13.797Z,100830.28
2023-02-22T21:03:43.154Z,100835.16
2023-02-22T21:06:14.975Z,100830.56
2023-02-22T21:08:44.370Z,100835.28
2023-02-22T21:11:12.806Z,100837.91
2023-02-22T21:13:40.759Z,100842.50
2023-02-22T21:16:11.000Z,100836.16
2023-02-22T21:18:38.862Z,100840.91
2023-02-22T21:21:10.360Z,100837.28
2023-02-22T21:23:39.166Z,100842.94
2023-02-22T21:26:07.439Z,100844.81
2023-02-22T21:28:50.404Z,100840.34
2023-02-22T21:31:22.326Z,100839.34
2023-02-22T21:33:51.627Z,100843.34
2023-02-22T21:36:20.441Z,100839.59
2023-02-22T21:38:53.284Z,100838.59
2023-02-22T21:41:24.173Z,100839.72
2023-02-22T21:43:53.229Z,100834.25
2023-02-22T21:46:22.623Z,100841.47
2023-02-22T21:48:51.010Z,100843.47
2023-02-22T21:51:21.691Z,100844.34
2023-02-22T21:53:52.101Z,100850.81
2023-02-22T21:56:24.237Z,100844.47
2023-02-22T21:58:59.053Z,100846.50
2023-02-22T22:01:29.436Z,100847.50
2023-02-22T22:04:00.012Z,100845.78
2023-02-22T22:06:29.235Z,100844.91
2023-02-22T22:08:59.753Z,100845.03
2023-02-22T22:11:30.463Z,100850.63
2023-02-22T22:13:59.606Z,100844.28
2023-02-22T22:16:30.164Z,100846.91
2023-02-22T22:18:58.836Z,100842.59
2023-02-22T22:21:26.832Z,100847.19
2023-02-22T22:23:56.069Z,100843.59
2023-02-22T22:26:25.704Z,100844.47
2023-02-22T22:28:55.833Z,100834.50
2023-02-22T22:31:25.867Z,100841.84
2023-02-22T22:33:56.340Z,100835.38
2023-02-22T22:36:26.552Z,100839.13
2023-02-22T22:38:57.259Z,100845.59
2023-02-22T22:41:28.050Z,100845.59
2023-02-22T22:43:56.728Z,100835.63
2023-02-22T22:46:24.570Z,100837.50
2023-02-22T22:48:52.430Z,100837.50
2023-02-22T22:51:22.944Z,100845.59
2023-02-22T22:53:52.898Z,100834.78
2023-02-22T22:56:25.867Z,100839.38
2023-02-22T22:58:54.787Z,100835.34
2023-02-22T23:01:27.087Z,100837.19
2023-02-22T23:03:59.238Z,100842.53
2023-02-22T23:06:32.894Z,100835.19
2023-02-22T23:09:11.641Z,100833.59
2023-02-22T23:11:44.318Z,100831.84
2023-02-22T23:14:13.216Z,100834.16
2023-02-22T23:16:42.235Z,100835.13
2023-02-22T23:19:10.760Z,100841.34
2023-02-22T23:21:42.991Z,100833.97
2023-02-22T23:24:15.070Z,100831.66
2023-02-22T23:26:48.303Z,100835.41
2023-02-22T23:29:17.200Z,100828.94
2023-02-22T23:31:47.958Z,100839.88
2023-02-22T23:34:16.738Z,100829.06
2023-02-22T23:36:46.745Z,100837.13
2023-02-22T23:39:16.823Z,100835.53
2023-02-22T23:41:44.836Z,100842.00
2023-02-22T23:44:17.372Z,100842.00
2023-02-22T23:46:48.199Z,100837.94
2023-02-22T23:49:19.986Z,100843.56
2023-02-22T23:51:49.843Z,100839.56
2023-02-22T23:54:20.289Z,100843.28
2023-02-22T23:56:56.337Z,100841.69
2023-02-22T23:59:25.357Z,100834.47
